Time;durP1;ratioP1;P1;durP2;ratioP2;P2;SDS_P1;SDS_P2;PMS_P1;PMS_P2;Temp;Humidity;BMP_temperature;BMP_pressure;BME280_temperature;BME280_humidity;BME280_pressure;Samples;Min_cycle;Max_cycle;Signal;HPM_P1;HPM_P2
2022/06/05 00:06:14;;;;;;;33.35;25.45;;;;;;;15.76;100.00;99375.03;4148589;84;21111;-84
2022/06/05 00:13:21;;;;;;;36.30;26.35;;;;;;;15.82;100.00;99377.59;4154962;84;20996;-85
2022/06/05 00:19:23;;;;;;;31.70;23.18;;;;;;;15.77;100.00;99362.83;4173577;84;21115;-84
2022/06/05 00:25:36;;;;;;;26.27;20.52;;;;;;;15.81;100.00;99365.77;4129994;85;21548;-84
2022/06/05 00:32:32;;;;;;;29.05;23.27;;;;;;;15.85;100.00;99372.04;4137598;84;21072;-85
2022/06/05 00:39:23;;;;;;;32.00;25.75;;;;;;;15.88;100.00;99385.04;4050160;84;21084;-84
2022/06/05 00:45:39;;;;;;;34.53;26.90;;;;;;;15.90;100.00;99391.54;4160379;84;21140;-84
2022/06/05 00:52:07;;;;;;;33.42;26.77;;;;;;;15.89;100.00;99379.73;4143174;85;21118;-85
2022/06/05 00:58:09;;;;;;;32.85;26.55;;;;;;;15.79;100.00;99374.23;4189546;83;21115;-84
2022/06/05 01:04:25;;;;;;;32.13;27.07;;;;;;;15.74;100.00;99373.29;4190552;83;21103;-84
2022/06/05 01:11:07;;;;;;;38.42;28.20;;;;;;;15.68;100.00;99380.59;4191965;83;21007;-84
2022/06/05 01:31:29;;;;;;;33.73;26.55;;;;;;;15.54;100.00;99380.64;3996391;88;21566;-85
2022/06/05 01:37:43;;;;;;;32.05;26.52;;;;;;;15.42;100.00;99372.80;3956296;88;21166;-84
2022/06/05 01:44:09;;;;;;;26.77;21.23;;;;;;;15.34;100.00;99356.61;4107410;82;21135;-84
2022/06/05 01:50:50;;;;;;;27.62;22.22;;;;;;;15.26;100.00;99359.98;4169835;84;21512;-84
2022/06/05 01:57:05;;;;;;;23.98;19.50;;;;;;;15.28;100.00;99365.90;4347316;80;21579;-84
2022/06/05 02:03:17;;;;;;;28.87;23.27;;;;;;;15.26;100.00;99368.26;4327708;80;21076;-84
2022/06/05 02:09:27;;;;;;;23.70;20.65;;;;;;;15.21;100.00;99360.37;4323587;80;20995;-84
2022/06/05 02:15:29;;;;;;;19.90;16.65;;;;;;;15.06;100.00;99361.59;4323508;80;21554;-84
2022/06/05 02:21:41;;;;;;;26.93;21.65;;;;;;;14.99;100.00;99366.30;4331996;80;21010;-84
2022/06/05 02:27:46;;;;;;;21.82;18.98;;;;;;;14.84;100.00;99372.44;4386809;80;21999;-83
2022/06/05 02:34:34;;;;;;;25.85;21.30;;;;;;;14.72;100.00;99375.56;4290093;80;20999;-84
2022/06/05 02:48:10;;;;;;;22.77;19.57;;;;;;;14.65;100.00;99383.04;4328503;80;21058;-84
2022/06/05 02:54:35;;;;;;;24.63;15.80;;;;;;;14.60;100.00;99382.84;4328842;80;21063;-84
2022/06/05 03:07:59;;;;;;;20.02;17.02;;;;;;;14.62;100.00;99381.07;4265704;81;21428;-84
2022/06/05 03:14:09;;;;;;;18.57;15.32;;;;;;;14.60;100.00;99398.58;4330577;80;21015;-84
2022/06/05 03:20:17;;;;;;;26.50;18.85;;;;;;;14.68;100.00;99409.80;4321443;80;21067;-84
2022/06/05 03:26:43;;;;;;;31.17;20.35;;;;;;;14.74;100.00;99415.92;4322752;80;21022;-84
2022/06/05 03:32:53;;;;;;;32.00;20.97;;;;;;;14.79;100.00;99411.98;4325385;80;21403;-84
2022/06/05 03:38:54;;;;;;;45.17;22.90;;;;;;;14.63;100.00;99405.47;4303515;80;21379;-84
2022/06/05 03:44:55;;;;;;;26.15;19.82;;;;;;;14.57;100.00;99413.13;4323694;80;21051;-84
2022/06/05 03:51:23;;;;;;;27.02;19.52;;;;;;;14.61;100.00;99420.83;4314895;80;22353;-84
2022/06/05 03:57:32;;;;;;;45.63;22.07;;;;;;;14.78;100.00;99417.31;4318246;80;21011;-84
2022/06/05 04:03:33;;;;;;;25.37;19.65;;;;;;;14.80;100.00;99415.73;4326627;80;20968;-84
2022/06/05 04:09:59;;;;;;;26.20;19.55;;;;;;;14.82;100.00;99418.09;4339438;80;20971;-83
2022/06/05 04:16:24;;;;;;;22.93;18.23;;;;;;;14.87;100.00;99423.22;4327744;80;21102;-83
2022/06/05 04:22:26;;;;;;;22.17;16.85;;;;;;;14.94;100.00;99419.87;4317941;80;21086;-84
2022/06/05 04:28:27;;;;;;;29.30;20.92;;;;;;;14.99;100.00;99419.48;4310505;80;21031;-84
2022/06/05 04:34:31;;;;;;;25.57;20.48;;;;;;;14.98;100.00;99435.03;4330457;80;20998;-84
2022/06/05 04:40:32;;;;;;;28.00;20.70;;;;;;;15.05;100.00;99432.30;4324772;80;21039;-84
2022/06/05 04:46:35;;;;;;;22.10;18.57;;;;;;;15.11;100.00;99441.75;4322034;80;21031;-84
2022/06/05 04:52:36;;;;;;;30.27;19.48;;;;;;;15.12;100.00;99432.28;4313603;80;21079;-84
2022/06/05 04:58:40;;;;;;;20.37;16.97;;;;;;;15.14;100.00;99438.20;4287615;81;21052;-84
2022/06/05 05:04:56;;;;;;;19.23;14.93;;;;;;;15.21;100.00;99439.56;4289267;81;21050;-85
2022/06/05 05:11:12;;;;;;;18.02;15.65;;;;;;;15.20;100.00;99441.55;4203227;85;21020;-84
2022/06/05 05:17:33;;;;;;;16.10;14.40;;;;;;;15.26;100.00;99453.75;4117764;85;21017;-85
2022/06/05 05:23:36;;;;;;;17.27;14.15;;;;;;;15.42;100.00;99463.03;4142806;84;21868;-84
2022/06/05 05:29:41;;;;;;;20.48;16.85;;;;;;;15.62;100.00;99460.84;4153213;85;21017;-85
2022/06/05 05:35:58;;;;;;;19.52;16.35;;;;;;;15.60;100.00;99448.03;4271706;81;21006;-85
2022/06/05 05:42:11;;;;;;;21.57;17.52;;;;;;;15.77;100.00;99462.95;4275954;81;20992;-84
2022/06/05 05:48:39;;;;;;;26.52;19.75;;;;;;;15.86;100.00;99466.12;4041951;87;21099;-85
2022/06/05 05:54:40;;;;;;;29.12;20.88;;;;;;;16.01;100.00;99470.98;3941668;89;21083;-85
2022/06/05 06:01:10;;;;;;;33.45;21.77;;;;;;;16.19;100.00;99467.00;3996972;87;21119;-85
2022/06/05 06:07:37;;;;;;;33.50;22.25;;;;;;;16.34;100.00;99460.80;4126328;85;21151;-84
2022/06/05 06:13:59;;;;;;;36.28;24.00;;;;;;;16.53;100.00;99457.58;4120417;85;22392;-85
2022/06/05 06:20:22;;;;;;;37.95;26.20;;;;;;;16.57;100.00;99452.22;4132095;84;21059;-85
2022/06/05 06:27:01;;;;;;;41.63;27.67;;;;;;;16.72;100.00;99448.20;4302006;80;21083;-84
2022/06/05 06:33:09;;;;;;;40.23;29.42;;;;;;;16.73;100.00;99453.91;4318656;80;21495;-85
2022/06/05 06:39:11;;;;;;;47.65;32.48;;;;;;;16.89;100.00;99448.67;4338834;80;21027;-85
2022/06/05 06:45:41;;;;;;;44.10;30.80;;;;;;;17.05;100.00;99444.01;4334677;80;21014;-85
2022/06/05 06:51:58;;;;;;;46.55;31.70;;;;;;;17.21;100.00;99440.12;4341370;82;20971;-85
2022/06/05 07:13:00;;;;;;;40.25;31.05;;;;;;;17.82;100.00;99422.52;4155937;84;21102;-85
2022/06/05 07:19:02;;;;;;;40.80;29.65;;;;;;;17.91;100.00;99418.68;4212817;80;21125;-85
2022/06/05 07:25:06;;;;;;;33.15;26.02;;;;;;;18.57;100.00;99417.66;4314021;80;21026;-85
2022/06/05 07:31:10;;;;;;;32.17;25.97;;;;;;;18.78;100.00;99433.97;4321434;81;21022;-86
2022/06/05 07:37:42;;;;;;;31.42;26.77;;;;;;;19.21;100.00;99434.88;4338111;80;21049;-85
2022/06/05 07:44:00;;;;;;;33.48;25.80;;;;;;;19.84;100.00;99437.15;4328958;81;20996;-85
2022/06/05 07:50:15;;;;;;;35.58;26.60;;;;;;;20.46;100.00;99441.84;4309751;80;21382;-85
2022/06/05 07:56:30;;;;;;;26.48;23.40;;;;;;;20.75;99.52;99440.02;4322082;80;21079;-86
2022/06/05 08:02:50;;;;;;;27.65;23.73;;;;;;;20.97;98.42;99440.50;4297577;81;20955;-87
2022/06/05 08:08:51;;;;;;;32.75;25.40;;;;;;;21.33;97.69;99440.44;4285872;81;22025;-85
2022/06/05 08:14:55;;;;;;;30.17;25.70;;;;;;;21.66;96.51;99441.94;4291810;81;21558;-86
2022/06/05 08:21:17;;;;;;;26.35;22.70;;;;;;;21.24;89.73;99446.61;4291566;81;21005;-86
2022/06/05 08:34:45;;;;;;;21.07;18.60;;;;;;;21.79;92.45;99452.58;4278008;83;20984;-85
2022/06/05 08:48:13;;;;;;;16.62;14.68;;;;;;;22.01;87.63;99448.59;4286951;81;21019;-86
2022/06/05 08:54:50;;;;;;;15.78;13.75;;;;;;;22.15;81.97;99439.22;4288073;81;20965;-85
2022/06/05 09:01:21;;;;;;;17.20;15.25;;;;;;;22.33;86.28;99438.72;4338535;80;21063;-86
2022/06/05 09:07:56;;;;;;;16.23;14.47;;;;;;;22.38;82.02;99433.99;4351094;80;21011;-85
2022/06/05 09:14:34;;;;;;;16.12;14.43;;;;;;;22.51;81.32;99429.20;4323434;80;21492;-85
2022/06/05 09:35:43;;;;;;;12.23;11.03;;;;;;;23.70;75.23;99416.95;4328425;80;21145;-84
2022/06/05 09:42:10;;;;;;;9.03;8.23;;;;;;;24.30;73.34;99419.77;4148658;82;21938;-85
2022/06/05 09:48:30;;;;;;;;;;;;;;;24.54;75.30;99418.02;4335941;80;20970;-86
2022/06/05 09:54:34;;;;;;;7.53;6.83;;;;;;;24.11;73.10;99424.28;4328524;80;20150;-86
2022/06/05 10:00:48;;;;;;;7.20;6.50;;;;;;;24.44;73.47;99423.42;4354526;80;20987;-87
2022/06/05 10:06:58;;;;;;;7.33;5.72;;;;;;;24.75;67.00;99410.05;4349665;80;20974;-86
2022/06/05 10:13:45;;;;;;;5.78;4.00;;;;;;;25.07;60.42;99409.56;4354461;80;21070;-86
2022/06/05 10:20:16;;;;;;;7.10;5.00;;;;;;;25.34;64.64;99405.47;4311273;80;21532;-88
2022/06/05 10:33:45;;;;;;;5.17;4.67;;;;;;;26.12;56.18;99414.22;4355226;80;21354;-86
2022/06/05 10:40:06;;;;;;;4.90;4.22;;;;;;;26.16;58.31;99404.23;4357580;80;21034;-86
2022/06/05 10:46:27;;;;;;;5.28;4.50;;;;;;;26.42;55.02;99404.02;4344656;80;21019;-86
2022/06/05 10:53:12;;;;;;;6.50;4.62;;;;;;;26.50;52.22;99396.06;4351639;80;22119;-86
2022/06/05 10:59:44;;;;;;;4.92;4.10;;;;;;;25.98;54.83;99388.17;4304991;80;21047;-86
2022/06/05 11:06:33;;;;;;;4.70;4.30;;;;;;;26.48;49.39;99382.50;4284184;81;21039;-85
2022/06/05 11:19:42;;;;;;;4.80;3.98;;;;;;;26.99;49.18;99373.41;4284032;81;21495;-90
2022/06/05 11:26:07;;;;;;;4.67;3.90;;;;;;;27.53;46.08;99364.62;4273764;81;21555;-85
2022/06/05 11:32:29;;;;;;;4.20;3.47;;;;;;;27.52;48.25;99369.33;4284903;81;21609;-88
2022/06/05 11:39:14;;;;;;;3.70;3.37;;;;;;;27.54;48.04;99361.98;4285336;81;21103;-88
2022/06/05 11:45:56;;;;;;;4.60;3.70;;;;;;;27.74;45.05;99356.33;4182229;84;21131;-88
2022/06/05 11:52:27;;;;;;;5.00;3.55;;;;;;;27.58;45.13;99347.09;4125960;84;21049;-88
2022/06/05 11:58:54;;;;;;;6.53;3.17;;;;;;;27.96;45.98;99338.49;4186571;83;21055;-88
2022/06/05 12:05:49;;;;;;;5.28;3.12;;;;;;;27.58;46.04;99333.66;4297994;81;21594;-89
2022/06/05 12:12:01;;;;;;;3.58;3.27;;;;;;;26.88;45.96;99332.42;4308457;81;21010;-87
2022/06/05 12:18:08;;;;;;;4.80;3.50;;;;;;;26.59;45.63;99328.03;4306498;81;21013;-88
